Time;durP1;ratioP1;P1;durP2;ratioP2;P2;SDS_P1;SDS_P2;PMS_P1;PMS_P2;Temp;Humidity;BMP_temperature;BMP_pressure;BME280_temperature;BME280_humidity;BME280_pressure;Samples;Min_cycle;Max_cycle;Signal;HPM_P1;HPM_P2
2022/12/09 00:01:13;;;;;;;27.33;15.33;;;;;;;;;;5009439;28;20362;-66
2022/12/09 00:03:39;;;;;;;27.23;15.93;;;;;;;;;;5012816;28;20179;-66
2022/12/09 00:06:10;;;;;;;28.27;16.47;;;;;;;;;;5019546;28;20175;-65
2022/12/09 00:08:35;;;;;;;29.97;16.90;;;;;;;;;;5014787;28;20226;-66
2022/12/09 00:11:01;;;;;;;28.93;16.50;;;;;;;;;;5014724;28;20655;-66
2022/12/09 00:13:27;;;;;;;29.13;16.73;;;;;;;;;;5029832;28;20181;-68
2022/12/09 00:15:52;;;;;;;27.67;16.87;;;;;;;;;;5023957;28;20178;-66
2022/12/09 00:18:17;;;;;;;26.27;16.70;;;;;;;;;;5022338;28;20282;-66
2022/12/09 00:20:43;;;;;;;29.57;17.00;;;;;;;;;;5023063;28;20190;-66
2022/12/09 00:23:08;;;;;;;27.23;16.73;;;;;;;;;;5023943;28;20284;-66
2022/12/09 00:25:33;;;;;;;27.00;16.13;;;;;;;;;;5020596;28;20186;-66
2022/12/09 00:27:58;;;;;;;28.77;17.20;;;;;;;;;;5023314;28;20476;-66
2022/12/09 00:30:24;;;;;;;28.53;17.10;;;;;;;;;;5034197;28;20528;-66
2022/12/09 00:32:50;;;;;;;27.00;17.03;;;;;;;;;;5019818;28;20673;-66
2022/12/09 00:35:15;;;;;;;27.60;16.53;;;;;;;;;;5020519;28;20212;-66
2022/12/09 00:37:40;;;;;;;27.17;17.10;;;;;;;;;;5028879;28;20194;-66
2022/12/09 00:40:06;;;;;;;26.63;16.53;;;;;;;;;;5029012;28;20186;-66
2022/12/09 00:42:32;;;;;;;27.23;16.50;;;;;;;;;;5028420;28;20308;-66
2022/12/09 00:44:57;;;;;;;26.57;15.67;;;;;;;;;;5039549;28;20269;-66
2022/12/09 00:47:22;;;;;;;28.10;16.90;;;;;;;;;;5044614;28;20190;-66
2022/12/09 00:49:48;;;;;;;26.17;15.10;;;;;;;;;;5029333;28;20276;-66
2022/12/09 00:52:13;;;;;;;26.30;15.77;;;;;;;;;;5035450;28;20544;-66
2022/12/09 00:54:39;;;;;;;25.13;15.50;;;;;;;;;;5030549;28;20205;-66
2022/12/09 00:57:04;;;;;;;28.33;16.87;;;;;;;;;;5028311;28;20493;-66
2022/12/09 00:59:29;;;;;;;29.23;16.30;;;;;;;;;;5043152;28;20190;-66
2022/12/09 01:01:55;;;;;;;27.47;16.03;;;;;;;;;;5036598;28;20585;-66
2022/12/09 01:04:23;;;;;;;28.33;16.03;;;;;;;;;;5024014;28;20664;-68
2022/12/09 01:06:48;;;;;;;24.70;15.23;;;;;;;;;;5009862;28;20623;-66
2022/12/09 01:09:14;;;;;;;24.47;15.57;;;;;;;;;;5020216;28;20238;-66
2022/12/09 01:11:39;;;;;;;29.90;16.37;;;;;;;;;;5021104;28;20214;-66
2022/12/09 01:14:04;;;;;;;27.90;17.00;;;;;;;;;;5026656;28;20224;-66
2022/12/09 01:16:32;;;;;;;25.13;15.77;;;;;;;;;;5026774;28;20255;-66
2022/12/09 01:18:59;;;;;;;29.23;17.17;;;;;;;;;;5048464;28;20209;-66
2022/12/09 01:21:28;;;;;;;30.77;17.40;;;;;;;;;;5033300;28;20324;-66
2022/12/09 01:23:54;;;;;;;29.83;17.73;;;;;;;;;;5028710;28;20188;-66
2022/12/09 01:26:20;;;;;;;29.40;18.13;;;;;;;;;;5024743;28;20189;-66
2022/12/09 01:28:45;;;;;;;27.10;16.43;;;;;;;;;;5012702;28;20214;-66
2022/12/09 01:31:13;;;;;;;30.20;17.37;;;;;;;;;;5018353;28;20195;-66
2022/12/09 01:33:40;;;;;;;27.87;17.37;;;;;;;;;;5023353;28;20186;-66
2022/12/09 01:36:08;;;;;;;32.43;17.60;;;;;;;;;;5026129;28;20178;-66
2022/12/09 01:38:34;;;;;;;34.20;18.10;;;;;;;;;;5028488;28;20193;-66
2022/12/09 01:40:59;;;;;;;31.00;18.53;;;;;;;;;;5012001;28;20182;-66
2022/12/09 01:43:25;;;;;;;36.33;19.30;;;;;;;;;;5017978;28;20224;-66
2022/12/09 01:45:50;;;;;;;34.03;19.70;;;;;;;;;;5018942;28;20580;-66
2022/12/09 01:48:19;;;;;;;32.10;19.83;;;;;;;;;;5026714;28;20792;-67
2022/12/09 01:50:54;;;;;;;35.83;21.03;;;;;;;;;;5016907;28;20519;-66
2022/12/09 01:53:24;;;;;;;33.47;19.77;;;;;;;;;;5027338;28;20177;-66
2022/12/09 01:55:50;;;;;;;36.67;20.70;;;;;;;;;;5025835;28;20741;-66
2022/12/09 01:58:17;;;;;;;35.27;21.37;;;;;;;;;;5025967;28;20284;-66
2022/12/09 02:00:43;;;;;;;37.53;22.07;;;;;;;;;;5022051;28;20312;-66
2022/12/09 02:03:08;;;;;;;37.30;21.40;;;;;;;;;;5025604;28;20434;-66
2022/12/09 02:05:34;;;;;;;40.50;22.67;;;;;;;;;;5016283;28;20241;-66
2022/12/09 02:07:59;;;;;;;36.97;22.03;;;;;;;;;;5021161;28;20680;-67
2022/12/09 02:10:26;;;;;;;39.87;22.93;;;;;;;;;;5020235;28;20199;-67
2022/12/09 02:13:06;;;;;;;38.27;22.30;;;;;;;;;;5016090;28;20491;-66
2022/12/09 02:15:47;;;;;;;37.83;22.07;;;;;;;;;;5016467;28;20547;-67
2022/12/09 02:18:21;;;;;;;37.67;22.17;;;;;;;;;;5025472;28;20178;-68
2022/12/09 02:21:03;;;;;;;38.83;22.27;;;;;;;;;;5022864;28;20178;-66
2022/12/09 02:23:39;;;;;;;37.07;20.63;;;;;;;;;;5019753;28;20534;-66
2022/12/09 02:26:46;;;;;;;41.27;23.37;;;;;;;;;;5026963;28;20216;-66
2022/12/09 02:29:45;;;;;;;39.97;22.83;;;;;;;;;;5017744;28;20325;-66
2022/12/09 02:32:36;;;;;;;42.20;22.37;;;;;;;;;;5020323;28;20190;-66
2022/12/09 02:35:10;;;;;;;42.63;23.47;;;;;;;;;;5021731;28;20185;-66
2022/12/09 02:37:44;;;;;;;41.13;23.53;;;;;;;;;;5026974;28;20182;-66
2022/12/09 02:40:34;;;;;;;42.47;23.73;;;;;;;;;;5026610;28;20673;-66
2022/12/09 02:43:04;;;;;;;42.03;23.97;;;;;;;;;;5024067;28;20213;-66
2022/12/09 02:45:30;;;;;;;43.00;25.43;;;;;;;;;;5023295;28;20634;-66
2022/12/09 02:47:59;;;;;;;42.77;24.93;;;;;;;;;;5027182;28;20336;-66
2022/12/09 02:50:28;;;;;;;47.17;26.03;;;;;;;;;;5022307;28;20183;-66
2022/12/09 02:52:57;;;;;;;43.07;24.90;;;;;;;;;;5023265;28;20269;-66
2022/12/09 02:55:23;;;;;;;45.07;26.00;;;;;;;;;;5027411;28;20179;-66
2022/12/09 02:57:55;;;;;;;44.10;25.30;;;;;;;;;;5024878;28;20551;-66
2022/12/09 03:00:21;;;;;;;45.80;26.27;;;;;;;;;;5039169;28;21104;-66
2022/12/09 03:02:50;;;;;;;46.20;26.03;;;;;;;;;;5036193;28;20775;-66
2022/12/09 03:05:17;;;;;;;47.70;25.97;;;;;;;;;;5029351;28;20867;-66
2022/12/09 03:07:57;;;;;;;47.27;26.77;;;;;;;;;;5030280;28;20178;-66
2022/12/09 03:10:28;;;;;;;43.60;25.80;;;;;;;;;;5026837;28;20182;-66
2022/12/09 03:13:02;;;;;;;43.07;24.67;;;;;;;;;;5022349;28;20598;-66
2022/12/09 03:15:31;;;;;;;47.17;26.43;;;;;;;;;;5016065;28;20184;-65
2022/12/09 03:18:00;;;;;;;47.47;27.23;;;;;;;;;;5032965;28;20185;-66
2022/12/09 03:20:29;;;;;;;45.97;26.50;;;;;;;;;;5018041;28;20725;-66
2022/12/09 03:22:59;;;;;;;45.90;24.60;;;;;;;;;;5023344;28;20187;-66
2022/12/09 03:25:29;;;;;;;49.83;26.77;;;;;;;;;;5023822;28;20175;-66
2022/12/09 03:28:07;;;;;;;49.37;26.80;;;;;;;;;;5029830;28;20181;-66
2022/12/09 03:30:36;;;;;;;46.33;25.77;;;;;;;;;;5029846;28;20194;-66
2022/12/09 03:33:03;;;;;;;49.60;26.87;;;;;;;;;;5034536;28;20451;-66
2022/12/09 03:35:34;;;;;;;48.97;27.10;;;;;;;;;;5028721;28;20248;-66
2022/12/09 03:38:03;;;;;;;51.17;27.50;;;;;;;;;;5018469;28;20178;-66
2022/12/09 03:40:30;;;;;;;49.87;26.90;;;;;;;;;;5028158;28;20542;-66
2022/12/09 03:43:02;;;;;;;53.20;27.73;;;;;;;;;;5017289;28;20265;-66
2022/12/09 03:45:27;;;;;;;48.23;26.90;;;;;;;;;;5021888;28;20190;-66
2022/12/09 03:47:53;;;;;;;49.57;27.57;;;;;;;;;;5028762;28;20264;-66
2022/12/09 03:50:21;;;;;;;54.53;27.73;;;;;;;;;;5029169;28;20192;-66
2022/12/09 03:52:55;;;;;;;59.73;28.40;;;;;;;;;;5021719;28;20202;-66
2022/12/09 03:55:39;;;;;;;56.60;27.70;;;;;;;;;;5020061;28;20181;-67
2022/12/09 03:58:06;;;;;;;51.13;24.63;;;;;;;;;;5022941;28;20220;-66
2022/12/09 04:00:36;;;;;;;51.20;26.90;;;;;;;;;;5028690;28;20725;-66
2022/12/09 04:03:02;;;;;;;52.13;26.33;;;;;;;;;;5031508;28;20324;-66
2022/12/09 04:05:27;;;;;;;53.67;25.83;;;;;;;;;;5037151;28;20223;-66
2022/12/09 04:07:53;;;;;;;48.93;25.07;;;;;;;;;;5009055;28;20206;-66
2022/12/09 04:10:18;;;;;;;54.97;28.13;;;;;;;;;;5026719;28;20210;-66
2022/12/09 04:12:44;;;;;;;58.83;29.03;;;;;;;;;;5018580;28;20170;-66
2022/12/09 04:15:09;;;;;;;56.17;28.23;;;;;;;;;;5022404;28;20652;-66
2022/12/09 04:17:35;;;;;;;54.80;28.27;;;;;;;;;;5029402;28;20268;-66
2022/12/09 04:20:00;;;;;;;57.57;29.00;;;;;;;;;;5026780;28;20210;-66
2022/12/09 04:22:26;;;;;;;52.80;27.77;;;;;;;;;;5021610;28;20232;-66
2022/12/09 04:24:51;;;;;;;55.53;27.87;;;;;;;;;;5032645;28;20200;-66
2022/12/09 04:27:16;;;;;;;55.47;28.50;;;;;;;;;;5027667;28;20239;-66
2022/12/09 04:29:42;;;;;;;53.83;27.57;;;;;;;;;;5028565;28;20202;-66
2022/12/09 04:32:07;;;;;;;55.33;28.27;;;;;;;;;;5026417;28;20197;-66
2022/12/09 04:34:33;;;;;;;57.47;27.73;;;;;;;;;;5022972;28;20243;-66
2022/12/09 04:36:58;;;;;;;54.07;28.53;;;;;;;;;;5014588;28;20179;-66
2022/12/09 04:39:24;;;;;;;50.47;26.93;;;;;;;;;;5011839;28;20175;-67
2022/12/09 04:41:49;;;;;;;58.83;29.17;;;;;;;;;;5013543;28;20215;-66
2022/12/09 04:44:15;;;;;;;54.93;28.40;;;;;;;;;;5009977;28;20580;-66
2022/12/09 04:46:40;;;;;;;55.90;28.97;;;;;;;;;;5029074;28;20185;-67
2022/12/09 04:49:05;;;;;;;55.90;28.87;;;;;;;;;;5025771;28;20198;-66
2022/12/09 04:51:31;;;;;;;55.77;28.37;;;;;;;;;;5027522;28;20723;-66
2022/12/09 04:53:56;;;;;;;55.43;27.27;;;;;;;;;;5022693;28;20213;-66
2022/12/09 04:56:22;;;;;;;55.40;27.30;;;;;;;;;;5029143;28;20185;-66
2022/12/09 04:58:48;;;;;;;52.77;27.13;;;;;;;;;;5027766;28;20181;-66
2022/12/09 05:01:16;;;;;;;57.30;28.77;;;;;;;;;;5030324;28;20310;-66
2022/12/09 05:03:42;;;;;;;55.40;28.63;;;;;;;;;;5022584;28;20221;-66
2022/12/09 05:06:11;;;;;;;54.30;28.00;;;;;;;;;;5022593;28;20202;-66
2022/12/09 05:08:38;;;;;;;52.80;27.20;;;;;;;;;;5017751;28;20337;-66
2022/12/09 05:11:04;;;;;;;51.63;28.00;;;;;;;;;;5014492;28;20288;-66
2022/12/09 05:13:30;;;;;;;52.47;27.33;;;;;;;;;;5023530;28;20182;-66
2022/12/09 05:16:07;;;;;;;54.07;28.70;;;;;;;;;;5022434;28;20680;-67
2022/12/09 05:18:33;;;;;;;50.23;26.20;;;;;;;;;;5014509;28;20262;-66
2022/12/09 05:20:58;;;;;;;54.50;28.70;;;;;;;;;;5026533;28;20213;-66
2022/12/09 05:23:24;;;;;;;54.83;28.10;;;;;;;;;;5021911;28;20214;-66
2022/12/09 05:25:50;;;;;;;54.53;28.37;;;;;;;;;;5021568;28;20189;-67
2022/12/09 05:28:15;;;;;;;57.00;29.03;;;;;;;;;;5024366;28;20201;-67
2022/12/09 05:30:41;;;;;;;57.00;28.87;;;;;;;;;;5021374;28;20602;-67
2022/12/09 05:33:06;;;;;;;58.43;28.07;;;;;;;;;;5015518;28;20222;-67
2022/12/09 05:35:32;;;;;;;51.37;27.20;;;;;;;;;;5012954;28;20278;-67
2022/12/09 05:37:58;;;;;;;49.67;25.93;;;;;;;;;;5013046;28;20190;-67
2022/12/09 05:40:23;;;;;;;50.77;26.83;;;;;;;;;;5012940;28;20587;-67
2022/12/09 05:42:48;;;;;;;57.90;28.10;;;;;;;;;;5023431;28;20194;-67
2022/12/09 05:45:14;;;;;;;57.30;27.87;;;;;;;;;;5034062;28;20264;-67
2022/12/09 05:47:39;;;;;;;55.67;28.33;;;;;;;;;;5022141;28;20277;-67
2022/12/09 05:50:06;;;;;;;61.97;30.57;;;;;;;;;;5027957;28;20252;-67
2022/12/09 05:52:34;;;;;;;61.90;31.10;;;;;;;;;;5029017;28;20196;-67
2022/12/09 05:54:59;;;;;;;63.47;30.87;;;;;;;;;;5026719;28;20193;-67
2022/12/09 05:57:24;;;;;;;67.37;30.43;;;;;;;;;;5019987;28;20190;-67
2022/12/09 05:59:50;;;;;;;66.10;31.20;;;;;;;;;;5028762;28;20213;-67
2022/12/09 06:02:15;;;;;;;59.77;29.10;;;;;;;;;;5026493;28;20241;-67
2022/12/09 06:04:40;;;;;;;68.57;31.73;;;;;;;;;;5029864;28;20182;-67
2022/12/09 06:07:06;;;;;;;60.90;30.23;;;;;;;;;;5017442;28;20201;-67
2022/12/09 06:09:32;;;;;;;63.40;29.80;;;;;;;;;;5016503;28;20205;-66
2022/12/09 06:11:58;;;;;;;68.27;31.50;;;;;;;;;;5016014;28;20217;-67
2022/12/09 06:14:23;;;;;;;61.67;29.90;;;;;;;;;;5018170;28;20186;-67
2022/12/09 06:16:48;;;;;;;67.13;31.40;;;;;;;;;;5018656;28;20646;-67
2022/12/09 06:19:13;;;;;;;68.80;31.67;;;;;;;;;;5024244;28;20546;-67
2022/12/09 06:21:40;;;;;;;69.73;31.37;;;;;;;;;;5017914;28;20179;-67
2022/12/09 06:24:06;;;;;;;62.47;30.73;;;;;;;;;;5035969;28;20181;-67
2022/12/09 06:26:31;;;;;;;63.17;31.37;;;;;;;;;;5019970;28;20175;-67
2022/12/09 06:29:00;;;;;;;65.90;30.87;;;;;;;;;;5026792;28;20257;-67
2022/12/09 06:31:28;;;;;;;67.87;30.73;;;;;;;;;;5024416;28;20801;-67
2022/12/09 06:33:53;;;;;;;62.17;29.13;;;;;;;;;;5026956;28;20213;-66
2022/12/09 06:36:19;;;;;;;72.73;31.67;;;;;;;;;;5027075;28;20194;-66
2022/12/09 06:38:44;;;;;;;63.50;31.13;;;;;;;;;;5019102;28;20179;-67
2022/12/09 06:41:12;;;;;;;62.97;29.87;;;;;;;;;;5012041;28;20183;-66
2022/12/09 06:43:38;;;;;;;62.30;30.53;;;;;;;;;;5026356;28;21104;-67
2022/12/09 06:46:11;;;;;;;63.93;30.63;;;;;;;;;;5019383;28;20218;-66
2022/12/09 06:48:37;;;;;;;57.67;29.27;;;;;;;;;;5024465;28;20209;-67
2022/12/09 06:51:02;;;;;;;57.63;29.17;;;;;;;;;;5027229;28;20186;-66
2022/12/09 06:53:27;;;;;;;63.73;31.00;;;;;;;;;;5032548;28;20196;-67
2022/12/09 06:55:53;;;;;;;63.83;31.10;;;;;;;;;;5028242;28;20181;-67
2022/12/09 06:58:18;;;;;;;59.53;28.53;;;;;;;;;;5027992;28;20344;-67
2022/12/09 07:00:43;;;;;;;65.40;31.50;;;;;;;;;;5020941;28;20206;-67
2022/12/09 07:03:11;;;;;;;60.40;31.00;;;;;;;;;;5020987;28;20727;-67
2022/12/09 07:05:37;;;;;;;59.50;28.23;;;;;;;;;;5033419;28;20186;-67
2022/12/09 07:08:02;;;;;;;61.50;30.03;;;;;;;;;;5020226;28;20194;-67
2022/12/09 07:10:27;;;;;;;65.17;31.00;;;;;;;;;;5034658;28;20206;-68
2022/12/09 07:12:53;;;;;;;62.03;30.27;;;;;;;;;;5020059;28;20277;-68
2022/12/09 07:15:18;;;;;;;59.83;30.57;;;;;;;;;;5011044;28;20222;-67
2022/12/09 07:17:43;;;;;;;69.33;32.57;;;;;;;;;;5011431;28;20244;-67
2022/12/09 07:20:09;;;;;;;64.90;31.70;;;;;;;;;;5030622;28;20178;-67
2022/12/09 07:22:35;;;;;;;61.03;30.80;;;;;;;;;;5029966;28;20174;-67
2022/12/09 07:25:00;;;;;;;58.80;30.63;;;;;;;;;;5021444;28;20199;-67
2022/12/09 07:27:25;;;;;;;64.53;31.40;;;;;;;;;;5008950;28;20186;-67
2022/12/09 07:29:51;;;;;;;63.97;32.07;;;;;;;;;;5010707;28;20210;-68
2022/12/09 07:32:16;;;;;;;60.23;31.13;;;;;;;;;;5021906;28;20244;-67
2022/12/09 07:34:41;;;;;;;63.43;31.77;;;;;;;;;;5010602;28;20175;-67
2022/12/09 07:37:07;;;;;;;55.53;29.57;;;;;;;;;;5024802;28;20192;-67
2022/12/09 07:39:32;;;;;;;61.83;31.10;;;;;;;;;;5020816;28;20258;-67
2022/12/09 07:41:58;;;;;;;59.03;30.80;;;;;;;;;;5022148;28;20179;-67
2022/12/09 07:44:26;;;;;;;65.87;31.43;;;;;;;;;;5027423;28;20194;-67
2022/12/09 07:46:52;;;;;;;69.97;33.13;;;;;;;;;;5035385;28;20303;-67
2022/12/09 07:49:17;;;;;;;79.70;34.20;;;;;;;;;;5020421;28;20313;-67
2022/12/09 07:51:43;;;;;;;121.60;42.23;;;;;;;;;;5021715;28;20546;-67
2022/12/09 07:54:17;;;;;;;71.20;31.87;;;;;;;;;;5017189;28;20222;-67
2022/12/09 07:56:43;;;;;;;71.33;31.40;;;;;;;;;;5032248;28;20254;-67
2022/12/09 07:59:11;;;;;;;75.97;33.00;;;;;;;;;;5026767;28;20258;-67
2022/12/09 08:01:37;;;;;;;71.03;32.10;;;;;;;;;;5022731;28;20313;-67
2022/12/09 08:04:05;;;;;;;69.43;32.30;;;;;;;;;;5013216;28;20270;-67
2022/12/09 08:06:30;;;;;;;69.87;31.97;;;;;;;;;;5020645;28;20190;-66
2022/12/09 08:09:00;;;;;;;82.10;35.43;;;;;;;;;;5011106;28;20207;-66
2022/12/09 08:11:27;;;;;;;69.57;32.50;;;;;;;;;;5023350;28;20189;-67
2022/12/09 08:13:55;;;;;;;69.80;33.03;;;;;;;;;;5028488;28;20272;-65
2022/12/09 08:16:21;;;;;;;65.67;31.40;;;;;;;;;;5030188;28;20251;-65
2022/12/09 08:18:48;;;;;;;62.77;31.30;;;;;;;;;;5016957;28;20701;-68
2022/12/09 08:21:15;;;;;;;64.03;30.07;;;;;;;;;;5012989;28;20187;-68
2022/12/09 08:23:41;;;;;;;67.97;31.37;;;;;;;;;;5022916;28;20243;-67
2022/12/09 08:26:09;;;;;;;69.17;32.70;;;;;;;;;;5020066;28;20273;-67
2022/12/09 08:28:34;;;;;;;65.93;31.10;;;;;;;;;;5025157;28;20217;-67
2022/12/09 08:31:06;;;;;;;65.77;29.93;;;;;;;;;;5018935;28;20547;-67
2022/12/09 08:33:33;;;;;;;64.97;29.67;;;;;;;;;;5021190;28;20197;-67
2022/12/09 08:35:58;;;;;;;59.77;29.53;;;;;;;;;;5024091;28;20210;-67
2022/12/09 08:38:24;;;;;;;57.47;28.80;;;;;;;;;;5018790;28;20260;-67
2022/12/09 08:40:49;;;;;;;65.07;30.00;;;;;;;;;;5013757;28;20189;-67
2022/12/09 08:43:14;;;;;;;60.77;30.20;;;;;;;;;;5014822;28;20190;-67
2022/12/09 08:45:40;;;;;;;69.40;32.93;;;;;;;;;;5029622;28;20178;-67
2022/12/09 08:48:07;;;;;;;67.93;30.53;;;;;;;;;;5037102;28;20191;-67
2022/12/09 08:50:34;;;;;;;61.10;28.50;;;;;;;;;;5022995;28;20471;-67
2022/12/09 08:52:59;;;;;;;64.63;30.10;;;;;;;;;;5019074;28;20191;-67
2022/12/09 08:55:25;;;;;;;68.40;29.80;;;;;;;;;;5009388;28;20268;-67
2022/12/09 08:57:50;;;;;;;72.57;31.20;;;;;;;;;;5014725;28;20234;-67
2022/12/09 09:00:17;;;;;;;70.77;30.80;;;;;;;;;;5024975;28;20487;-67
2022/12/09 09:02:42;;;;;;;70.80;30.83;;;;;;;;;;5013565;28;20236;-67
2022/12/09 09:05:08;;;;;;;71.40;32.30;;;;;;;;;;5037181;28;20182;-67
2022/12/09 09:07:33;;;;;;;70.23;31.83;;;;;;;;;;5030078;28;20263;-67
2022/12/09 09:09:59;;;;;;;68.00;30.03;;;;;;;;;;5018851;28;20301;-68
2022/12/09 09:12:28;;;;;;;72.17;29.77;;;;;;;;;;5027044;28;20221;-67
2022/12/09 09:14:53;;;;;;;72.57;33.17;;;;;;;;;;5019948;28;20177;-67
2022/12/09 09:17:22;;;;;;;77.33;33.60;;;;;;;;;;5019906;28;20194;-67
2022/12/09 09:19:48;;;;;;;74.23;33.17;;;;;;;;;;5021339;28;20667;-67
2022/12/09 09:22:13;;;;;;;76.50;34.87;;;;;;;;;;5012376;28;20265;-68
2022/12/09 09:24:39;;;;;;;83.20;36.43;;;;;;;;;;5016175;28;20204;-68
2022/12/09 09:27:04;;;;;;;73.90;34.33;;;;;;;;;;5023482;28;20407;-68
2022/12/09 09:29:30;;;;;;;68.53;33.00;;;;;;;;;;5014764;28;20384;-67
2022/12/09 09:31:56;;;;;;;68.30;32.30;;;;;;;;;;5025499;28;20189;-67
2022/12/09 09:34:23;;;;;;;108.53;55.43;;;;;;;;;;5013226;28;20383;-67
2022/12/09 09:36:49;;;;;;;82.40;38.27;;;;;;;;;;5012099;28;20500;-67
2022/12/09 09:39:16;;;;;;;70.87;37.57;;;;;;;;;;5014338;28;20512;-67
2022/12/09 09:42:02;;;;;;;66.27;32.77;;;;;;;;;;5012044;28;20551;-67
2022/12/09 09:44:48;;;;;;;66.13;31.20;;;;;;;;;;5019186;28;20214;-68
2022/12/09 09:47:36;;;;;;;66.80;31.43;;;;;;;;;;5028071;28;20192;-71
2022/12/09 09:50:08;;;;;;;59.93;30.50;;;;;;;;;;5022312;28;20202;-67
2022/12/09 09:52:36;;;;;;;54.73;27.67;;;;;;;;;;5007675;28;20543;-67
2022/12/09 09:55:12;;;;;;;47.40;23.13;;;;;;;;;;5015082;28;20212;-68
2022/12/09 09:58:06;;;;;;;45.40;22.17;;;;;;;;;;5027637;28;20185;-68
2022/12/09 10:00:44;;;;;;;48.63;22.83;;;;;;;;;;5007865;28;20294;-67
2022/12/09 10:03:18;;;;;;;46.60;24.40;;;;;;;;;;5011448;28;20313;-67
2022/12/09 10:05:53;;;;;;;47.07;23.83;;;;;;;;;;5023225;28;20188;-67
2022/12/09 10:08:34;;;;;;;42.00;22.27;;;;;;;;;;5016237;28;20501;-67
2022/12/09 10:11:21;;;;;;;45.07;22.00;;;;;;;;;;5023575;28;20285;-68
2022/12/09 10:14:14;;;;;;;40.90;20.40;;;;;;;;;;5015713;28;20539;-67
2022/12/09 10:17:03;;;;;;;42.40;21.60;;;;;;;;;;5021377;28;20235;-67
2022/12/09 10:19:47;;;;;;;37.93;20.47;;;;;;;;;;5022503;28;20332;-68
2022/12/09 10:22:27;;;;;;;38.17;19.43;;;;;;;;;;5024380;28;20190;-67
2022/12/09 10:24:56;;;;;;;38.53;20.37;;;;;;;;;;5030654;28;20694;-67
2022/12/09 10:27:38;;;;;;;37.60;20.13;;;;;;;;;;5030308;28;20207;-67
2022/12/09 10:30:08;;;;;;;39.27;19.00;;;;;;;;;;5020267;28;20327;-67
2022/12/09 10:32:35;;;;;;;37.50;19.57;;;;;;;;;;5025545;28;20193;-67
2022/12/09 10:35:10;;;;;;;36.30;18.60;;;;;;;;;;5022417;28;20190;-67
2022/12/09 10:37:36;;;;;;;38.07;19.33;;;;;;;;;;5027391;28;20174;-67
2022/12/09 10:40:10;;;;;;;36.03;19.07;;;;;;;;;;5023308;28;20508;-67
2022/12/09 10:45:47;;;;;;;35.60;18.87;;;;;;;;;;5027198;28;20292;-67
2022/12/09 10:48:20;;;;;;;37.20;17.93;;;;;;;;;;5024437;28;20202;-67
2022/12/09 10:50:46;;;;;;;36.47;18.50;;;;;;;;;;5011793;28;20193;-67
2022/12/09 10:53:14;;;;;;;38.07;19.20;;;;;;;;;;5012413;28;20182;-68
2022/12/09 10:55:48;;;;;;;36.83;18.23;;;;;;;;;;5022850;28;20189;-68
2022/12/09 10:58:23;;;;;;;33.03;17.67;;;;;;;;;;5027545;28;20181;-67
2022/12/09 11:01:17;;;;;;;34.87;16.83;;;;;;;;;;5044629;28;20268;-67
2022/12/09 11:03:52;;;;;;;33.80;18.20;;;;;;;;;;5013872;28;20203;-68
2022/12/09 11:06:24;;;;;;;35.53;18.47;;;;;;;;;;5012471;28;20324;-68
2022/12/09 11:09:00;;;;;;;40.20;19.17;;;;;;;;;;5012043;28;20290;-68
2022/12/09 11:11:44;;;;;;;38.37;18.83;;;;;;;;;;5012837;28;20467;-67
2022/12/09 11:14:36;;;;;;;36.30;17.53;;;;;;;;;;5017585;28;20187;-67
2022/12/09 11:17:18;;;;;;;33.93;16.60;;;;;;;;;;5011938;28;20174;-67
2022/12/09 11:19:50;;;;;;;32.40;16.90;;;;;;;;;;5003635;28;20242;-67
2022/12/09 11:22:37;;;;;;;32.77;16.47;;;;;;;;;;4991604;28;20195;-67
2022/12/09 11:25:12;;;;;;;35.70;17.80;;;;;;;;;;5004941;28;20654;-67
2022/12/09 11:27:40;;;;;;;34.77;17.27;;;;;;;;;;4999412;28;20607;-67
2022/12/09 11:30:32;;;;;;;35.83;17.97;;;;;;;;;;4993408;28;20675;-67
2022/12/09 11:33:06;;;;;;;42.07;18.77;;;;;;;;;;4995264;28;20551;-67
2022/12/09 11:35:51;;;;;;;34.63;17.50;;;;;;;;;;5001925;28;20183;-68
2022/12/09 11:38:30;;;;;;;35.73;16.70;;;;;;;;;;5006047;28;20442;-67
2022/12/09 11:41:09;;;;;;;33.27;17.20;;;;;;;;;;5006088;28;20186;-67
2022/12/09 11:43:47;;;;;;;34.77;17.27;;;;;;;;;;4990390;28;20183;-67
2022/12/09 11:46:12;;;;;;;34.10;16.77;;;;;;;;;;4995124;28;20191;-67
2022/12/09 11:48:40;;;;;;;36.37;17.87;;;;;;;;;;5006884;28;20219;-67
2022/12/09 11:51:15;;;;;;;32.77;15.50;;;;;;;;;;4990089;28;20210;-67
2022/12/09 11:53:40;;;;;;;33.07;16.50;;;;;;;;;;4996824;28;20218;-67
2022/12/09 11:56:19;;;;;;;34.03;16.60;;;;;;;;;;5010808;28;20237;-67
2022/12/09 11:59:03;;;;;;;35.23;17.60;;;;;;;;;;5011607;28;20179;-67
2022/12/09 12:01:51;;;;;;;35.67;18.90;;;;;;;;;;5012026;28;20225;-67
2022/12/09 12:04:26;;;;;;;33.67;17.50;;;;;;;;;;5010826;28;20288;-67
2022/12/09 12:06:58;;;;;;;32.87;17.10;;;;;;;;;;5029268;28;20178;-67
2022/12/09 12:09:30;;;;;;;31.20;16.33;;;;;;;;;;5015421;28;20281;-67
2022/12/09 12:12:08;;;;;;;34.80;17.87;;;;;;;;;;5024236;28;20333;-67
2022/12/09 12:14:36;;;;;;;39.13;18.87;;;;;;;;;;5019097;28;20179;-68
2022/12/09 12:17:19;;;;;;;45.90;18.67;;;;;;;;;;5027716;28;20219;-67
2022/12/09 12:19:49;;;;;;;37.73;18.00;;;;;;;;;;5024008;28;20209;-67
2022/12/09 12:22:41;;;;;;;36.30;17.70;;;;;;;;;;5034301;28;20473;-67
2022/12/09 12:25:29;;;;;;;38.40;18.70;;;;;;;;;;5019725;28;20522;-67
2022/12/09 12:28:03;;;;;;;36.50;18.63;;;;;;;;;;5020138;28;20292;-68
2022/12/09 12:30:47;;;;;;;34.77;17.33;;;;;;;;;;5022880;28;20205;-67
2022/12/09 12:33:52;;;;;;;37.80;18.07;;;;;;;;;;5029924;28;20179;-67
2022/12/09 12:36:31;;;;;;;34.63;17.47;;;;;;;;;;5027305;28;20511;-67
2022/12/09 12:38:59;;;;;;;35.47;18.53;;;;;;;;;;5019860;28;20192;-67
2022/12/09 12:41:36;;;;;;;34.83;18.27;;;;;;;;;;5013455;28;20187;-67
2022/12/09 12:47:19;;;;;;;42.07;19.20;;;;;;;;;;5008611;28;20194;-68
2022/12/09 12:49:50;;;;;;;38.23;19.10;;;;;;;;;;5009328;28;20350;-68
2022/12/09 12:52:36;;;;;;;36.40;18.40;;;;;;;;;;5019037;28;20448;-68
2022/12/09 12:55:31;;;;;;;36.03;17.97;;;;;;;;;;5027884;28;20221;-68
2022/12/09 12:58:34;;;;;;;32.80;16.57;;;;;;;;;;5026721;28;20178;-68
2022/12/09 13:01:28;;;;;;;32.57;16.27;;;;;;;;;;5012421;28;20244;-67
2022/12/09 13:04:12;;;;;;;34.97;16.97;;;;;;;;;;5010349;28;20216;-67
2022/12/09 13:06:42;;;;;;;35.37;16.40;;;;;;;;;;5012523;28;20183;-67
2022/12/09 13:09:13;;;;;;;32.40;16.23;;;;;;;;;;5008023;28;20678;-67
2022/12/09 13:11:57;;;;;;;36.43;17.73;;;;;;;;;;5015600;28;20200;-68
2022/12/09 13:14:30;;;;;;;36.30;16.80;;;;;;;;;;5017605;28;20496;-67
2022/12/09 13:16:57;;;;;;;33.07;16.87;;;;;;;;;;5013747;28;20191;-67
2022/12/09 13:19:32;;;;;;;31.30;15.77;;;;;;;;;;5012916;28;20187;-67
2022/12/09 13:21:57;;;;;;;32.37;15.43;;;;;;;;;;5015429;28;20194;-67
2022/12/09 13:24:39;;;;;;;31.43;16.17;;;;;;;;;;5015271;28;20182;-68
2022/12/09 13:27:13;;;;;;;33.33;16.20;;;;;;;;;;5009906;28;20822;-67
2022/12/09 13:30:00;;;;;;;28.30;13.97;;;;;;;;;;5016634;28;20227;-67
2022/12/09 13:32:58;;;;;;;27.63;13.73;;;;;;;;;;5009184;28;20193;-67
2022/12/09 13:35:45;;;;;;;25.07;13.70;;;;;;;;;;5007662;28;20240;-67
2022/12/09 13:38:23;;;;;;;26.13;14.17;;;;;;;;;;5008322;28;20278;-67
2022/12/09 13:40:49;;;;;;;28.37;13.63;;;;;;;;;;5012002;28;20190;-67
2022/12/09 13:43:26;;;;;;;26.37;13.47;;;;;;;;;;5012134;28;20813;-67
2022/12/09 13:46:00;;;;;;;25.07;12.77;;;;;;;;;;5012812;28;20241;-67
2022/12/09 13:48:28;;;;;;;24.80;12.80;;;;;;;;;;5007426;28;20214;-67
2022/12/09 13:50:58;;;;;;;24.33;12.77;;;;;;;;;;5009523;28;20210;-67
2022/12/09 13:53:34;;;;;;;22.43;11.97;;;;;;;;;;5008527;28;20213;-68
2022/12/09 13:56:04;;;;;;;23.73;12.67;;;;;;;;;;5013035;28;20186;-67
2022/12/09 13:58:35;;;;;;;25.20;12.07;;;;;;;;;;5027401;28;20182;-67
2022/12/09 14:01:10;;;;;;;24.20;11.70;;;;;;;;;;5016014;28;20258;-67
2022/12/09 14:03:45;;;;;;;20.70;10.77;;;;;;;;;;5037826;28;20248;-68
2022/12/09 14:06:28;;;;;;;22.13;11.33;;;;;;;;;;5017766;28;20272;-67
2022/12/09 14:08:59;;;;;;;22.80;11.37;;;;;;;;;;5018586;28;20239;-68
2022/12/09 14:11:37;;;;;;;22.27;11.23;;;;;;;;;;5018055;28;20186;-68
2022/12/09 14:14:24;;;;;;;25.87;11.67;;;;;;;;;;5033215;28;20193;-67
2022/12/09 14:16:49;;;;;;;23.27;11.10;;;;;;;;;;5027216;28;20209;-67
2022/12/09 14:19:23;;;;;;;20.77;10.60;;;;;;;;;;5011119;28;20202;-68
2022/12/09 14:22:18;;;;;;;23.47;11.60;;;;;;;;;;5009210;28;20217;-67
2022/12/09 14:24:54;;;;;;;24.17;11.90;;;;;;;;;;5007988;28;20551;-67
2022/12/09 14:27:24;;;;;;;20.53;11.10;;;;;;;;;;5015598;28;20261;-67
2022/12/09 14:29:51;;;;;;;23.83;11.60;;;;;;;;;;5013518;28;20293;-68
2022/12/09 14:32:29;;;;;;;27.10;10.90;;;;;;;;;;5023955;28;20182;-68
2022/12/09 14:35:09;;;;;;;23.17;11.10;;;;;;;;;;5019955;28;20185;-67
2022/12/09 14:37:59;;;;;;;24.23;12.27;;;;;;;;;;5024960;28;20182;-67
2022/12/09 14:40:55;;;;;;;26.13;12.47;;;;;;;;;;5020043;28;20605;-68
2022/12/09 14:43:33;;;;;;;24.90;12.43;;;;;;;;;;5023413;28;20182;-67